createdAt,value
2023-04-17T00:00:07.571Z,8.00
2023-04-17T00:03:12.057Z,7.70
2023-04-17T00:06:19.078Z,7.10
2023-04-17T00:09:22.080Z,7.47
2023-04-17T00:12:24.796Z,7.97
2023-04-17T00:15:27.617Z,7.73
2023-04-17T00:18:30.689Z,7.47
2023-04-17T00:21:34.976Z,8.03
2023-04-17T00:24:37.699Z,7.07
2023-04-17T00:27:40.538Z,7.93
2023-04-17T00:30:43.254Z,7.87
2023-04-17T00:33:47.074Z,7.07
2023-04-17T00:36:51.414Z,8.63
2023-04-17T00:39:54.241Z,8.10
2023-04-17T00:43:01.399Z,7.43
2023-04-17T00:46:05.390Z,7.63
2023-04-17T00:49:09.086Z,7.03
2023-04-17T00:52:14.339Z,7.90
2023-04-17T00:55:17.180Z,8.47
2023-04-17T00:58:20.245Z,8.10
2023-04-17T01:01:23.394Z,7.83
2023-04-17T01:04:26.724Z,8.53
2023-04-17T01:07:31.603Z,9.30
2023-04-17T01:10:34.574Z,7.27
2023-04-17T01:13:45.811Z,8.87
2023-04-17T01:16:48.769Z,8.23
2023-04-17T01:19:51.807Z,7.53
2023-04-17T01:22:56.256Z,8.50
2023-04-17T01:26:00.436Z,8.27
2023-04-17T01:29:04.278Z,7.33
2023-04-17T01:32:07.139Z,7.40
2023-04-17T01:35:10.914Z,8.43
2023-04-17T01:38:13.611Z,7.40
2023-04-17T01:41:17.914Z,7.53
2023-04-17T01:44:20.726Z,8.47
2023-04-17T01:47:23.656Z,8.37
2023-04-17T01:50:27.605Z,8.40
2023-04-17T01:53:31.464Z,8.53
2023-04-17T01:56:35.905Z,8.10
2023-04-17T01:59:38.814Z,8.13
2023-04-17T02:02:42.135Z,8.87
2023-04-17T02:05:47.221Z,8.10
2023-04-17T02:08:50.142Z,7.73
2023-04-17T02:11:54.499Z,8.00
2023-04-17T02:15:01.183Z,8.27
2023-04-17T02:18:06.153Z,8.07
2023-04-17T02:21:09.826Z,8.57
2023-04-17T02:24:12.692Z,7.77
2023-04-17T02:27:17.389Z,7.73
2023-04-17T02:30:20.579Z,8.87
2023-04-17T02:33:23.515Z,8.13
2023-04-17T02:36:26.440Z,8.60
2023-04-17T02:39:29.348Z,8.77
2023-04-17T02:42:33.660Z,8.10
2023-04-17T02:45:36.684Z,8.33
2023-04-17T02:48:39.503Z,7.80
2023-04-17T02:51:42.440Z,8.50
2023-04-17T02:54:45.298Z,8.90
2023-04-17T02:57:49.868Z,8.63
2023-04-17T03:00:52.768Z,8.27
2023-04-17T03:03:56.421Z,8.53
2023-04-17T03:06:59.844Z,8.07
2023-04-17T03:10:03.299Z,7.93
2023-04-17T03:13:07.726Z,8.13
2023-04-17T03:16:10.722Z,7.50
2023-04-17T03:19:13.811Z,7.43
2023-04-17T03:22:16.793Z,7.83
2023-04-17T03:25:19.738Z,8.13
2023-04-17T03:28:24.117Z,8.33
2023-04-17T03:31:27.999Z,8.37
2023-04-17T03:34:32.440Z,8.13
2023-04-17T03:37:35.505Z,6.97
2023-04-17T03:40:38.499Z,7.83
2023-04-17T03:43:44.119Z,8.07
2023-04-17T03:46:47.078Z,8.40
2023-04-17T03:49:50.085Z,7.80
2023-04-17T03:52:52.930Z,7.40
2023-04-17T03:55:55.926Z,8.23
2023-04-17T03:59:00.216Z,7.87
2023-04-17T04:02:03.343Z,9.17
2023-04-17T04:05:07.228Z,8.37
2023-04-17T04:08:10.123Z,7.77
2023-04-17T04:11:13.076Z,7.73
2023-04-17T04:14:17.310Z,8.00
2023-04-17T04:17:20.064Z,7.37
2023-04-17T04:20:23.372Z,8.17
2023-04-17T04:23:28.115Z,8.57
2023-04-17T04:26:31.256Z,8.20
2023-04-17T04:29:38.680Z,7.57
2023-04-17T04:32:41.655Z,8.87
2023-04-17T04:35:47.588Z,8.70
2023-04-17T04:38:51.148Z,7.60
2023-04-17T04:41:55.641Z,8.83
2023-04-17T04:45:00.364Z,7.87
2023-04-17T04:48:03.355Z,8.60
2023-04-17T04:51:06.711Z,8.20
2023-04-17T04:54:09.693Z,7.43
2023-04-17T04:57:12.633Z,7.60
2023-04-17T05:00:18.734Z,8.00
2023-04-17T05:03:22.467Z,7.50
2023-04-17T05:06:26.267Z,8.60
2023-04-17T05:09:29.212Z,8.43
2023-04-17T05:12:33.065Z,8.07
2023-04-17T05:15:37.357Z,8.07
2023-04-17T05:18:40.296Z,8.30
2023-04-17T05:21:43.595Z,8.23
2023-04-17T05:24:46.505Z,8.03
2023-04-17T05:27:49.572Z,7.23
2023-04-17T05:30:53.959Z,7.90
2023-04-17T05:33:56.972Z,7.90
2023-04-17T05:36:59.890Z,7.80
2023-04-17T05:40:02.969Z,7.70
2023-04-17T05:43:09.792Z,7.57
2023-04-17T05:46:14.048Z,7.87
2023-04-17T05:49:17.035Z,7.33
2023-04-17T05:52:19.839Z,7.93
2023-04-17T05:55:22.830Z,7.60
2023-04-17T05:58:25.769Z,7.93
2023-04-17T06:01:30.234Z,8.00
2023-04-17T06:04:33.465Z,7.63
2023-04-17T06:07:38.381Z,7.57
2023-04-17T06:10:41.534Z,7.33
2023-04-17T06:13:44.376Z,7.47
2023-04-17T06:16:48.703Z,7.60
2023-04-17T06:19:51.805Z,7.73
2023-04-17T06:22:54.789Z,7.72
2023-04-17T06:25:57.839Z,7.50
2023-04-17T06:29:01.248Z,7.07
2023-04-17T06:32:05.860Z,8.30
2023-04-17T06:35:09.804Z,7.97
2023-04-17T06:38:12.696Z,7.70
2023-04-17T06:41:15.529Z,7.40
2023-04-17T06:44:18.759Z,7.50
2023-04-17T06:47:23.117Z,8.00
2023-04-17T06:50:26.371Z,7.63
2023-04-17T06:53:29.351Z,7.63
2023-04-17T06:56:32.676Z,7.30
2023-04-17T06:59:35.545Z,7.03
2023-04-17T07:02:39.855Z,6.97
2023-04-17T07:05:44.729Z,8.07
2023-04-17T07:08:47.689Z,7.83
2023-04-17T07:11:50.491Z,7.77
2023-04-17T07:14:53.275Z,7.00
2023-04-17T07:17:57.765Z,7.00
2023-04-17T07:21:01.462Z,7.40
2023-04-17T07:24:04.694Z,7.10
2023-04-17T07:27:07.781Z,6.90
2023-04-17T07:30:11.461Z,7.77
2023-04-17T07:33:15.870Z,6.97
2023-04-17T07:36:19.046Z,5.97
2023-04-17T07:39:22.353Z,7.27
2023-04-17T07:42:25.443Z,7.97
2023-04-17T07:45:28.620Z,6.27
2023-04-17T07:48:32.999Z,6.87
2023-04-17T07:51:35.880Z,6.67
2023-04-17T07:54:38.787Z,7.30
2023-04-17T07:57:42.726Z,6.73
2023-04-17T08:00:45.818Z,6.33
2023-04-17T08:03:51.865Z,8.07
2023-04-17T08:06:54.949Z,7.10
2023-04-17T08:09:57.815Z,7.73
2023-04-17T08:13:01.856Z,7.17
2023-04-17T08:16:04.880Z,6.27
2023-04-17T08:19:09.346Z,6.37
2023-04-17T08:22:12.629Z,6.77
2023-04-17T08:25:15.890Z,6.80
2023-04-17T08:28:18.617Z,6.60
2023-04-17T08:31:21.424Z,5.37
2023-04-17T08:34:25.671Z,5.27
2023-04-17T08:37:28.594Z,5.60
2023-04-17T08:40:31.554Z,5.87
2023-04-17T08:43:36.871Z,5.17
2023-04-17T08:46:40.820Z,5.67
2023-04-17T08:49:46.045Z,5.40
2023-04-17T08:52:50.478Z,5.40
2023-04-17T08:55:53.245Z,4.73
2023-04-17T08:58:56.149Z,5.47
2023-04-17T09:02:03.823Z,5.07
2023-04-17T09:05:20.117Z,5.00
2023-04-17T09:08:24.131Z,4.90
2023-04-17T09:11:27.591Z,4.20
2023-04-17T09:14:31.547Z,4.50
2023-04-17T09:17:37.789Z,4.27
2023-04-17T09:20:50.173Z,4.17
2023-04-17T09:23:56.100Z,4.00
2023-04-17T09:27:23.025Z,3.50
2023-04-17T09:30:27.106Z,3.73
2023-04-17T09:33:29.852Z,3.87
2023-04-17T09:36:36.824Z,3.67
2023-04-17T09:39:40.665Z,4.00
2023-04-17T09:42:55.639Z,3.37
2023-04-17T09:45:59.675Z,3.27
2023-04-17T09:49:08.351Z,3.20
2023-04-17T09:52:14.561Z,3.30
2023-04-17T09:55:21.365Z,4.13
2023-04-17T09:58:24.503Z,3.30
2023-04-17T10:01:28.928Z,3.13
2023-04-17T10:04:31.804Z,2.87
2023-04-17T10:07:37.056Z,3.40
2023-04-17T10:10:39.958Z,3.00
2023-04-17T10:13:46.291Z,3.23
2023-04-17T10:16:49.192Z,3.43
2023-04-17T10:19:52.186Z,3.47
2023-04-17T10:22:56.749Z,3.70
2023-04-17T10:26:45.573Z,3.33
2023-04-17T10:29:55.014Z,3.03
2023-04-17T10:33:24.597Z,3.10
2023-04-17T10:36:52.386Z,3.73
2023-04-17T10:40:01.177Z,3.13
2023-04-17T10:43:06.107Z,3.45
2023-04-17T10:46:11.079Z,3.97
2023-04-17T10:49:15.221Z,3.38
2023-04-17T10:52:45.359Z,3.58
2023-04-17T10:55:51.241Z,3.20
2023-04-17T10:58:59.246Z,3.58
2023-04-17T11:02:04.376Z,3.78
2023-04-17T11:05:08.184Z,4.03
2023-04-17T11:08:11.116Z,3.35
2023-04-17T11:11:18.594Z,3.03
2023-04-17T11:14:27.411Z,3.10
2023-04-17T11:17:30.489Z,3.13
2023-04-17T11:20:34.364Z,3.00
2023-04-17T11:23:37.558Z,2.92
2023-04-17T11:26:44.942Z,3.30
2023-04-17T11:29:47.784Z,3.07
2023-04-17T11:32:50.670Z,3.77
2023-04-17T11:35:55.548Z,3.47
2023-04-17T11:38:58.303Z,3.40
2023-04-17T11:42:03.849Z,3.33
2023-04-17T11:45:08.609Z,3.57
2023-04-17T11:48:13.190Z,3.93
2023-04-17T11:51:19.228Z,3.80
2023-04-17T11:54:26.115Z,3.77
2023-04-17T11:57:30.228Z,3.70
2023-04-17T12:00:33.780Z,2.90
2023-04-17T12:03:37.187Z,3.83
2023-04-17T12:06:40.391Z,3.77
2023-04-17T12:09:43.537Z,3.17
2023-04-17T12:12:47.679Z,3.45
2023-04-17T12:15:50.823Z,3.03
2023-04-17T12:18:54.094Z,3.08
2023-04-17T12:21:57.272Z,3.92
2023-04-17T12:25:00.773Z,4.07
2023-04-17T12:28:05.599Z,3.22
2023-04-17T12:31:08.311Z,3.30
2023-04-17T12:34:11.407Z,3.50
2023-04-17T12:37:14.335Z,3.38
2023-04-17T12:40:17.752Z,3.22
2023-04-17T12:43:22.065Z,3.17
2023-04-17T12:46:25.451Z,3.22
2023-04-17T12:49:28.449Z,3.13
2023-04-17T12:52:31.182Z,3.65
2023-04-17T12:55:34.114Z,3.05
2023-04-17T12:58:38.237Z,2.65
2023-04-17T13:01:41.250Z,3.22
2023-04-17T13:04:44.107Z,3.05
2023-04-17T13:07:47.378Z,3.40
2023-04-17T13:10:50.064Z,3.17
2023-04-17T13:13:54.081Z,3.30
2023-04-17T13:16:57.512Z,3.33
2023-04-17T13:20:00.382Z,2.58
2023-04-17T13:23:03.215Z,3.20
2023-04-17T13:26:06.413Z,2.88
2023-04-17T13:29:10.666Z,3.17
2023-04-17T13:32:13.553Z,3.20
2023-04-17T13:35:16.484Z,2.40
2023-04-17T13:38:19.187Z,2.63
2023-04-17T13:41:22.018Z,3.08
2023-04-17T13:44:26.608Z,3.00
2023-04-17T13:47:29.550Z,3.22
2023-04-17T13:50:35.908Z,3.00
2023-04-17T13:53:38.733Z,3.10
2023-04-17T13:56:42.325Z,2.90
2023-04-17T13:59:46.730Z,2.78
2023-04-17T14:02:49.976Z,2.60
2023-04-17T14:05:52.900Z,2.90
2023-04-17T14:08:56.224Z,2.60
2023-04-17T14:11:59.188Z,2.70
2023-04-17T14:15:03.737Z,2.92
2023-04-17T14:18:06.883Z,2.67
2023-04-17T14:21:09.572Z,2.83
2023-04-17T14:24:12.503Z,2.70
2023-04-17T14:27:15.597Z,2.42
2023-04-17T14:30:19.721Z,2.60
2023-04-17T14:33:22.964Z,2.88
2023-04-17T14:36:25.894Z,2.53
2023-04-17T14:39:30.816Z,2.42
2023-04-17T14:42:43.782Z,2.88
2023-04-17T14:45:55.284Z,2.95
2023-04-17T14:48:58.085Z,3.05
2023-04-17T14:52:00.913Z,3.50
2023-04-17T14:55:07.159Z,2.55
2023-04-17T14:58:10.091Z,3.00
2023-04-17T15:01:14.286Z,2.45
2023-04-17T15:04:17.242Z,3.38
2023-04-17T15:07:20.225Z,2.83
2023-04-17T15:10:23.036Z,2.80
2023-04-17T15:13:25.785Z,2.55
2023-04-17T15:16:34.283Z,3.10
2023-04-17T15:19:37.126Z,2.50
2023-04-17T15:22:39.787Z,2.50
2023-04-17T15:25:42.780Z,2.50
2023-04-17T15:28:45.634Z,2.80
2023-04-17T15:31:52.540Z,2.55
2023-04-17T15:34:55.387Z,3.15
2023-04-17T15:37:59.915Z,2.58
2023-04-17T15:41:03.641Z,2.70
2023-04-17T15:44:07.030Z,2.30
2023-04-17T15:47:11.176Z,2.25
2023-04-17T15:50:14.657Z,2.60
2023-04-17T15:53:17.417Z,2.47
2023-04-17T15:56:21.560Z,2.42
2023-04-17T15:59:25.337Z,2.03
2023-04-17T16:02:30.795Z,2.72
2023-04-17T16:05:33.834Z,2.63
2023-04-17T16:09:10.517Z,2.33
2023-04-17T16:20:08.771Z,2.40
2023-04-17T16:23:11.414Z,2.63
2023-04-17T16:26:15.030Z,2.22
2023-04-17T16:29:17.673Z,2.70
2023-04-17T16:32:20.855Z,1.92
2023-04-17T16:35:25.586Z,2.05
2023-04-17T16:38:28.528Z,1.70
2023-04-17T16:41:31.202Z,2.20
2023-04-17T16:44:33.975Z,2.45
2023-04-17T16:47:38.726Z,2.22
2023-04-17T16:50:43.050Z,1.75
2023-04-17T16:53:45.780Z,1.65
2023-04-17T16:56:48.863Z,1.80
2023-04-17T16:59:51.579Z,1.67
2023-04-17T17:02:54.401Z,1.63
2023-04-17T17:05:58.734Z,1.65
2023-04-17T17:09:01.756Z,1.98
2023-04-17T17:12:04.856Z,1.38
2023-04-17T17:15:08.838Z,1.27
2023-04-17T17:18:11.600Z,1.30
2023-04-17T17:21:16.396Z,1.20
2023-04-17T17:24:19.069Z,1.38
2023-04-17T17:27:21.940Z,1.23
2023-04-17T17:30:25.254Z,1.15
2023-04-17T17:33:28.254Z,1.20
2023-04-17T17:36:32.451Z,1.42
2023-04-17T17:39:35.233Z,1.48
2023-04-17T17:42:37.993Z,1.60
2023-04-17T17:45:40.662Z,1.23
2023-04-17T17:48:43.479Z,1.20
2023-04-17T17:51:47.635Z,1.45
2023-04-17T17:54:50.433Z,1.33
2023-04-17T17:57:53.324Z,1.60
2023-04-17T18:00:56.105Z,1.30
2023-04-17T18:03:58.821Z,1.27
2023-04-17T18:07:03.704Z,1.00
2023-04-17T18:10:07.965Z,1.17
2023-04-17T18:13:10.740Z,1.20
2023-04-17T18:16:13.550Z,1.23
2023-04-17T18:19:16.289Z,1.10
2023-04-17T18:22:21.460Z,1.10
2023-04-17T18:25:24.187Z,1.45
2023-04-17T18:28:27.113Z,1.58
2023-04-17T18:31:29.821Z,1.37
2023-04-17T18:34:32.584Z,1.20
2023-04-17T18:37:36.678Z,1.10
2023-04-17T18:40:39.398Z,1.33
2023-04-17T18:43:42.052Z,1.00
2023-04-17T18:46:44.914Z,1.10
2023-04-17T18:49:47.677Z,1.13
2023-04-17T18:52:52.393Z,1.10
2023-04-17T18:55:57.562Z,1.07
2023-04-17T18:59:00.850Z,1.30
2023-04-17T19:02:03.575Z,1.20
2023-04-17T19:05:07.415Z,1.37
2023-04-17T19:08:11.542Z,1.30
2023-04-17T19:11:14.401Z,1.47
2023-04-17T19:14:17.104Z,1.40
2023-04-17T19:17:19.761Z,1.60
2023-04-17T19:20:23.347Z,1.37
2023-04-17T19:23:27.414Z,1.60
2023-04-17T19:26:30.343Z,1.70
2023-04-17T19:29:33.807Z,1.90
2023-04-17T19:32:36.691Z,1.70
2023-04-17T19:35:39.691Z,1.77
2023-04-17T19:38:43.967Z,2.00
2023-04-17T19:41:50.807Z,2.10
2023-04-17T19:44:53.863Z,2.33
2023-04-17T19:47:57.181Z,2.42
2023-04-17T19:51:00.431Z,2.30
2023-04-17T19:54:04.611Z,2.43
2023-04-17T19:57:07.337Z,2.07
2023-04-17T20:00:11.276Z,2.20
2023-04-17T20:03:14.150Z,2.30
2023-04-17T20:06:16.954Z,2.30
2023-04-17T20:09:20.961Z,2.10
2023-04-17T20:12:23.621Z,1.73
2023-04-17T20:15:26.370Z,1.93
2023-04-17T20:18:29.051Z,2.40
2023-04-17T20:21:31.798Z,2.40
2023-04-17T20:24:36.228Z,1.93
2023-04-17T20:27:38.838Z,2.20
2023-04-17T20:30:41.864Z,2.10
2023-04-17T20:33:44.591Z,2.00
2023-04-17T20:36:47.284Z,2.30
2023-04-17T20:39:51.297Z,2.50
2023-04-17T20:42:54.034Z,2.60
2023-04-17T20:45:56.718Z,3.43
2023-04-17T20:48:59.504Z,2.80
2023-04-17T20:52:02.996Z,2.43
2023-04-17T20:55:07.644Z,2.93
2023-04-17T20:58:10.872Z,2.87
2023-04-17T21:01:13.558Z,3.13
2023-04-17T21:04:16.714Z,3.00
2023-04-17T21:07:20.324Z,3.47
2023-04-17T21:10:24.847Z,4.07
2023-04-17T21:13:28.047Z,4.03
2023-04-17T21:16:31.245Z,4.07
2023-04-17T21:19:36.682Z,4.97
2023-04-17T21:22:39.377Z,4.80
2023-04-17T21:25:52.393Z,4.77
2023-04-17T21:28:55.306Z,4.37
2023-04-17T21:31:58.586Z,4.50
2023-04-17T21:35:01.596Z,4.70
2023-04-17T21:38:04.279Z,4.27
2023-04-17T21:41:09.660Z,4.40
2023-04-17T21:44:12.576Z,4.00
2023-04-17T21:47:16.562Z,4.63
2023-04-17T21:50:19.689Z,4.40
2023-04-17T21:53:22.349Z,4.23
2023-04-17T21:56:26.497Z,4.00
2023-04-17T21:59:29.212Z,4.60
2023-04-17T22:02:32.306Z,5.13
2023-04-17T22:05:35.141Z,5.00
2023-04-17T22:08:37.877Z,5.23
2023-04-17T22:11:42.196Z,4.60
2023-04-17T22:14:44.859Z,4.90
2023-04-17T22:17:47.738Z,4.80
2023-04-17T22:20:50.552Z,5.37
2023-04-17T22:23:53.298Z,6.07
2023-04-17T22:26:57.604Z,6.70
2023-04-17T22:30:00.321Z,6.83
2023-04-17T22:33:03.298Z,6.50
2023-04-17T22:36:06.334Z,6.93
2023-04-17T22:39:09.220Z,7.43
2023-04-17T22:42:13.270Z,7.30
2023-04-17T22:45:16.017Z,6.63
2023-04-17T22:48:18.917Z,6.37
2023-04-17T22:51:22.438Z,7.00
2023-04-17T22:54:25.217Z,7.57
2023-04-17T22:57:29.356Z,6.70
2023-04-17T23:00:32.438Z,7.40
2023-04-17T23:03:37.588Z,7.37
2023-04-17T23:06:40.371Z,8.30
2023-04-17T23:09:43.090Z,6.63
2023-04-17T23:12:47.446Z,6.57
2023-04-17T23:15:51.457Z,6.53
2023-04-17T23:18:54.135Z,6.83
2023-04-17T23:21:57.866Z,6.13
2023-04-17T23:25:00.555Z,6.00
2023-04-17T23:28:04.979Z,6.07
2023-04-17T23:31:07.851Z,6.53
2023-04-17T23:34:10.715Z,6.47
2023-04-17T23:37:13.460Z,6.20
2023-04-17T23:40:16.255Z,6.30
2023-04-17T23:43:20.304Z,6.20
2023-04-17T23:46:23.295Z,6.07
2023-04-17T23:49:26.115Z,5.90
2023-04-17T23:52:28.898Z,5.37
2023-04-17T23:55:31.601Z,6.37
2023-04-17T23:58:35.742Z,5.53
